Time;durP1;ratioP1;P1;durP2;ratioP2;P2;SDS_P1;SDS_P2;PMS_P1;PMS_P2;Temp;Humidity;BMP_temperature;BMP_pressure;BME280_temperature;BME280_humidity;BME280_pressure;Samples;Min_cycle;Max_cycle;Signal;HPM_P1;HPM_P2
2022/08/04 00:02:08;;;;;;;9.20;7.40;;;20.20;99.90;;;;;;5073201;28;20032;-76
2022/08/04 00:04:46;;;;;;;2.90;1.15;;;20.20;99.90;;;;;;5093145;28;20028;-76
2022/08/04 00:07:41;;;;;;;0.00;0.00;;;20.20;99.90;;;;;;5093579;28;20087;-79
2022/08/04 00:10:08;;;;;;;0.13;0.10;;;20.00;99.90;;;;;;5061661;28;20062;-76
2022/08/04 00:12:41;;;;;;;1.27;1.25;;;19.90;99.90;;;;;;5074817;28;20020;-79
2022/08/04 00:15:10;;;;;;;0.00;0.00;;;19.90;99.90;;;;;;5075051;28;20108;-77
2022/08/04 00:17:44;;;;;;;0.63;0.63;;;19.90;99.90;;;;;;5093274;28;20035;-77
2022/08/04 00:20:18;;;;;;;0.00;0.00;;;20.00;99.90;;;;;;5086095;28;20029;-78
2022/08/04 00:22:46;;;;;;;0.00;0.00;;;20.20;99.90;;;;;;5070959;28;20020;-78
2022/08/04 00:25:12;;;;;;;0.00;0.00;;;20.20;99.90;;;;;;5066097;28;20131;-77
2022/08/04 00:27:39;;;;;;;0.40;0.40;;;20.30;99.90;;;;;;5058692;28;20033;-78
2022/08/04 00:30:06;;;;;;;0.77;0.77;;;20.20;99.90;;;;;;5055062;28;20032;-78
2022/08/04 00:32:33;;;;;;;2.05;1.27;;;20.30;99.90;;;;;;5072789;28;20031;-79
2022/08/04 00:35:00;;;;;;;0.10;0.10;;;20.10;99.90;;;;;;5054808;28;20031;-80
2022/08/04 00:37:27;;;;;;;0.25;0.08;;;19.80;99.90;;;;;;5055117;28;20028;-78
2022/08/04 00:39:54;;;;;;;0.00;0.00;;;19.70;99.90;;;;;;5064577;28;20016;-77
2022/08/04 00:42:34;;;;;;;0.43;0.30;;;19.70;99.90;;;;;;5065709;28;20055;-79
2022/08/04 00:45:30;;;;;;;1.02;0.35;;;19.80;99.90;;;;;;5065959;28;20036;-80
2022/08/04 00:48:32;;;;;;;5.57;3.92;;;19.70;99.90;;;;;;5064255;28;20040;-77
2022/08/04 00:51:42;;;;;;;8.05;2.58;;;19.80;99.90;;;;;;5075155;28;20028;-78
2022/08/04 00:54:16;;;;;;;0.00;0.00;;;19.80;99.90;;;;;;5090780;28;20024;-78
2022/08/04 00:57:09;;;;;;;0.00;0.00;;;19.60;99.90;;;;;;5059854;28;20511;-77
2022/08/04 00:59:56;;;;;;;0.55;0.55;;;19.80;99.90;;;;;;5063393;28;20025;-78
2022/08/04 01:02:38;;;;;;;0.22;0.20;;;20.00;99.90;;;;;;5093230;28;20535;-79
2022/08/04 01:05:26;;;;;;;1.20;1.10;;;20.00;99.90;;;;;;5077648;28;20048;-80
2022/08/04 01:08:17;;;;;;;4.03;1.38;;;20.00;99.90;;;;;;5079332;28;20020;-79
2022/08/04 01:11:12;;;;;;;2.88;1.63;;;19.50;99.90;;;;;;5083357;28;20035;-77
2022/08/04 01:13:57;;;;;;;6.50;4.03;;;19.20;99.90;;;;;;5100932;28;20020;-78
2022/08/04 01:16:30;;;;;;;0.05;0.03;;;19.00;99.90;;;;;;5100784;28;20023;-78
2022/08/04 01:19:02;;;;;;;9.52;4.68;;;19.00;99.90;;;;;;5083142;28;20034;-77
2022/08/04 01:21:54;;;;;;;11.82;4.28;;;19.00;99.90;;;;;;5078845;28;20039;-77
2022/08/04 01:25:04;;;;;;;0.52;0.52;;;18.90;99.90;;;;;;5090221;28;20035;-78
2022/08/04 01:28:05;;;;;;;3.38;1.55;;;19.00;99.90;;;;;;5063985;28;20565;-79
2022/08/04 01:30:32;;;;;;;1.08;0.93;;;19.30;99.90;;;;;;5046129;28;20469;-79
2022/08/04 01:33:02;;;;;;;3.72;3.38;;;19.20;99.90;;;;;;5077721;28;20032;-78
2022/08/04 01:35:37;;;;;;;3.88;2.45;;;19.10;99.90;;;;;;5077105;28;20073;-78
2022/08/04 01:38:16;;;;;;;6.60;4.25;;;19.20;99.90;;;;;;5096223;28;20028;-78
2022/08/04 01:40:44;;;;;;;6.25;5.10;;;19.20;99.90;;;;;;5096137;28;20161;-79
2022/08/04 01:43:13;;;;;;;3.95;2.45;;;19.30;99.90;;;;;;5075604;28;20110;-77
2022/08/04 01:45:41;;;;;;;11.48;4.72;;;19.30;99.90;;;;;;5072702;28;20162;-78
2022/08/04 01:48:08;;;;;;;5.07;3.90;;;19.30;99.90;;;;;;5075564;28;20511;-79
2022/08/04 01:50:35;;;;;;;13.32;5.90;;;19.30;99.90;;;;;;5079423;28;20492;-78
2022/08/04 01:53:03;;;;;;;5.82;2.90;;;19.30;99.90;;;;;;5098114;28;20017;-78
2022/08/04 01:55:29;;;;;;;2.92;2.60;;;19.20;99.90;;;;;;5097887;28;20103;-79
2022/08/04 01:57:59;;;;;;;17.92;7.43;;;19.40;99.90;;;;;;5097367;28;20092;-80
2022/08/04 02:00:28;;;;;;;4.03;2.08;;;19.60;99.90;;;;;;5090657;28;20035;-76
2022/08/04 02:02:55;;;;;;;7.60;5.68;;;19.30;99.90;;;;;;5090323;28;20038;-78
2022/08/04 02:05:25;;;;;;;6.30;2.90;;;19.40;99.90;;;;;;5071855;28;20016;-79
2022/08/04 02:08:21;;;;;;;5.45;1.73;;;19.40;99.90;;;;;;5075364;28;20028;-78
2022/08/04 02:11:00;;;;;;;6.15;2.45;;;19.40;99.90;;;;;;5068987;28;20046;-77
2022/08/04 02:13:45;;;;;;;7.43;3.30;;;19.40;99.90;;;;;;5085406;28;20027;-78
2022/08/04 02:16:24;;;;;;;3.72;2.05;;;19.30;99.90;;;;;;5080129;28;20024;-79
2022/08/04 02:19:15;;;;;;;3.08;1.83;;;19.20;99.90;;;;;;5069324;28;20035;-79
2022/08/04 02:21:46;;;;;;;1.27;0.93;;;19.20;99.90;;;;;;5094181;28;20123;-79
2022/08/04 02:24:15;;;;;;;7.10;2.20;;;19.20;99.90;;;;;;5072273;28;20067;-78
2022/08/04 02:26:45;;;;;;;4.80;1.08;;;19.40;99.90;;;;;;5084126;28;20012;-78
2022/08/04 02:29:11;;;;;;;2.97;2.75;;;19.40;99.90;;;;;;5086602;28;20477;-79
2022/08/04 02:31:50;;;;;;;0.50;0.50;;;19.40;99.90;;;;;;5085046;28;20029;-78
2022/08/04 02:34:55;;;;;;;1.60;1.27;;;19.70;99.90;;;;;;5090519;28;20085;-78
2022/08/04 02:37:23;;;;;;;9.38;4.22;;;19.90;99.90;;;;;;5070549;28;20026;-78
2022/08/04 02:39:53;;;;;;;0.60;0.30;;;20.00;99.90;;;;;;5094019;28;20020;-79
2022/08/04 02:42:19;;;;;;;0.08;0.08;;;20.00;99.90;;;;;;5071119;28;20036;-79
2022/08/04 02:44:50;;;;;;;0.43;0.25;;;20.20;99.90;;;;;;5091193;28;20074;-81
2022/08/04 02:47:20;;;;;;;3.50;2.50;;;20.40;99.90;;;;;;5078408;28;20025;-81
2022/08/04 02:49:49;;;;;;;0.85;0.45;;;20.80;99.90;;;;;;5095575;28;20029;-81
2022/08/04 02:52:17;;;;;;;1.27;1.25;;;20.90;99.90;;;;;;5105843;28;20035;-81
2022/08/04 02:54:46;;;;;;;3.15;2.65;;;21.00;99.90;;;;;;5088838;28;20361;-80
2022/08/04 02:57:14;;;;;;;5.97;4.20;;;21.20;99.90;;;;;;5091151;28;20056;-80
2022/08/04 02:59:55;;;;;;;1.48;1.00;;;21.30;99.90;;;;;;5070571;28;20039;-81
2022/08/04 03:02:33;;;;;;;0.00;0.00;;;21.30;99.90;;;;;;5083210;28;20020;-79
2022/08/04 03:05:11;;;;;;;18.73;17.65;;;21.10;99.90;;;;;;5091412;28;20028;-82
2022/08/04 03:08:12;;;;;;;7.13;0.93;;;21.30;99.90;;;;;;5083325;28;20385;-81
2022/08/04 03:11:01;;;;;;;0.00;0.00;;;21.70;99.90;;;;;;5068754;28;20031;-80
2022/08/04 03:14:11;;;;;;;0.00;0.00;;;22.00;99.90;;;;;;5081874;28;20067;-80
2022/08/04 03:16:56;;;;;;;0.05;0.05;;;21.90;99.90;;;;;;4974611;28;20030;-84
2022/08/04 03:19:28;;;;;;;0.85;0.70;;;22.10;99.90;;;;;;4973753;28;20071;-83
2022/08/04 03:22:23;;;;;;;6.45;2.55;;;22.30;99.90;;;;;;5043468;28;20044;-83
2022/08/04 03:24:49;;;;;;;0.52;0.50;;;22.40;99.90;;;;;;4998274;28;20050;-81
2022/08/04 03:28:01;;;;;;;0.20;0.20;;;22.50;99.90;;;;;;5089559;28;20109;-82
2022/08/04 03:31:09;;;;;;;1.52;1.42;;;22.60;99.90;;;;;;5091203;28;20068;-84
2022/08/04 03:34:02;;;;;;;1.50;1.25;;;22.60;99.90;;;;;;5089991;28;20021;-81
2022/08/04 03:36:54;;;;;;;2.97;2.20;;;22.50;99.90;;;;;;5082647;28;20017;-80
2022/08/04 03:39:39;;;;;;;5.28;2.17;;;22.40;99.90;;;;;;5080265;28;20027;-84
2022/08/04 03:42:27;;;;;;;6.72;4.13;;;22.50;99.90;;;;;;5078324;28;20031;-84
2022/08/04 03:44:53;;;;;;;8.98;4.45;;;22.30;99.90;;;;;;5060835;28;20028;-84
2022/08/04 03:47:42;;;;;;;0.47;0.47;;;22.20;99.90;;;;;;5065654;28;20024;-84
2022/08/04 03:50:15;;;;;;;3.40;2.67;;;22.50;99.90;;;;;;5071733;28;20031;-81
2022/08/04 03:53:16;;;;;;;7.03;4.15;;;22.70;99.90;;;;;;5065608;28;20067;-84
2022/08/04 03:56:19;;;;;;;5.97;2.42;;;22.80;99.90;;;;;;5066331;28;20016;-86
2022/08/04 03:59:14;;;;;;;5.22;3.75;;;22.90;99.90;;;;;;5079463;28;20024;-83
2022/08/04 04:01:58;;;;;;;4.68;3.35;;;23.10;99.90;;;;;;5067682;28;20024;-86
2022/08/04 04:04:46;;;;;;;8.25;1.80;;;23.00;99.90;;;;;;5067503;28;20099;-85
2022/08/04 04:07:49;;;;;;;1.35;1.23;;;23.20;99.90;;;;;;5067511;28;20138;-84
2022/08/04 04:10:41;;;;;;;8.88;2.00;;;23.60;99.90;;;;;;5089281;28;20049;-83
2022/08/04 04:13:28;;;;;;;3.53;1.88;;;24.00;99.90;;;;;;5097894;28;20036;-84
2022/08/04 04:16:06;;;;;;;3.65;2.90;;;24.10;99.90;;;;;;5072745;28;20042;-85
2022/08/04 04:19:04;;;;;;;4.57;1.50;;;23.80;99.90;;;;;;5087257;28;20034;-84
2022/08/04 04:21:33;;;;;;;2.05;1.48;;;23.70;99.90;;;;;;5088901;28;20031;-85
2022/08/04 04:24:16;;;;;;;6.10;2.75;;;23.90;99.90;;;;;;5091748;28;20496;-82
2022/08/04 04:27:07;;;;;;;2.47;0.88;;;23.90;99.90;;;;;;5069111;28;20016;-82
2022/08/04 04:29:45;;;;;;;0.38;0.38;;;24.10;99.90;;;;;;5071728;28;20024;-83
2022/08/04 04:32:40;;;;;;;12.45;2.38;;;24.60;99.90;;;;;;5072028;28;20026;-83
2022/08/04 04:35:42;;;;;;;1.55;1.38;;;25.10;99.90;;;;;;5085069;28;20114;-84
2022/08/04 04:38:27;;;;;;;2.30;0.57;;;25.30;99.90;;;;;;5066947;28;20107;-83
2022/08/04 04:41:22;;;;;;;7.88;1.52;;;25.70;99.90;;;;;;5092692;28;20013;-83
2022/08/04 04:44:39;;;;;;;0.15;0.15;;;25.70;99.90;;;;;;5095933;28;20060;-84
2022/08/04 04:47:21;;;;;;;0.55;0.55;;;25.70;99.90;;;;;;5083828;28;20492;-83
2022/08/04 04:50:08;;;;;;;2.33;1.30;;;25.70;99.90;;;;;;5088123;28;20035;-82
2022/08/04 04:52:52;;;;;;;1.50;1.13;;;25.90;99.90;;;;;;5082729;28;20028;-84
2022/08/04 04:55:25;;;;;;;0.90;0.85;;;26.10;99.90;;;;;;5072379;28;20062;-83
2022/08/04 04:57:53;;;;;;;2.70;1.23;;;25.90;99.90;;;;;;5070693;28;20111;-77
2022/08/04 05:00:20;;;;;;;2.65;2.45;;;26.00;99.90;;;;;;5083448;28;20154;-84
2022/08/04 05:03:23;;;;;;;2.10;1.90;;;26.00;99.90;;;;;;5065839;28;20027;-82
2022/08/04 05:06:01;;;;;;;2.90;1.75;;;26.00;99.90;;;;;;5083127;28;20373;-83
2022/08/04 05:08:46;;;;;;;8.85;4.47;;;25.80;99.90;;;;;;5077067;28;20502;-82
2022/08/04 05:11:31;;;;;;;9.40;4.95;;;25.60;99.90;;;;;;5089171;28;20032;-82
2022/08/04 05:14:29;;;;;;;10.43;4.38;;;25.30;99.90;;;;;;5065432;28;20715;-84
2022/08/04 05:17:20;;;;;;;7.78;3.67;;;25.40;99.90;;;;;;5074308;28;20086;-87
2022/08/04 05:20:08;;;;;;;0.52;0.40;;;25.60;99.90;;;;;;5072111;28;20126;-82
2022/08/04 05:22:43;;;;;;;0.63;0.63;;;25.60;99.90;;;;;;5096188;28;20048;-88
2022/08/04 05:25:12;;;;;;;2.40;1.02;;;25.50;99.90;;;;;;5066392;28;20115;-84
2022/08/04 05:27:56;;;;;;;1.30;1.20;;;25.70;99.90;;;;;;5068002;28;20028;-84
2022/08/04 05:30:24;;;;;;;2.03;1.55;;;26.00;99.90;;;;;;5063568;28;20024;-83
2022/08/04 05:33:05;;;;;;;1.75;0.85;;;26.10;99.90;;;;;;5060921;28;20036;-81
2022/08/04 05:35:54;;;;;;;2.53;1.45;;;26.30;99.90;;;;;;5065619;28;20024;-82
2022/08/04 05:38:24;;;;;;;4.13;0.47;;;26.20;99.90;;;;;;5085675;28;20490;-83
2022/08/04 05:40:51;;;;;;;0.68;0.25;;;26.30;99.10;;;;;;5086528;28;20024;-82
2022/08/04 05:43:18;;;;;;;4.22;1.88;;;26.50;93.80;;;;;;5085897;28;20546;-82
2022/08/04 05:45:47;;;;;;;0.00;0.00;;;26.80;80.30;;;;;;5082669;28;20099;-82
2022/08/04 05:48:14;;;;;;;0.90;0.40;;;26.70;72.20;;;;;;5058126;28;20055;-82
2022/08/04 05:50:40;;;;;;;2.17;0.50;;;26.90;71.60;;;;;;5083790;28;20028;-81
2022/08/04 05:53:09;;;;;;;1.38;0.52;;;27.00;70.90;;;;;;5070936;28;20029;-81
2022/08/04 05:55:36;;;;;;;2.85;0.90;;;27.10;69.70;;;;;;5069331;28;20020;-83
2022/08/04 05:58:03;;;;;;;1.02;0.73;;;27.10;68.70;;;;;;5071367;28;20020;-82
2022/08/04 06:00:30;;;;;;;2.25;2.05;;;27.20;66.20;;;;;;5084934;28;20020;-82
2022/08/04 06:02:58;;;;;;;0.65;0.52;;;27.40;65.90;;;;;;5087248;28;20029;-85
2022/08/04 06:05:26;;;;;;;1.67;0.40;;;27.60;63.70;;;;;;5077753;28;20015;-84
2022/08/04 06:07:52;;;;;;;4.68;2.88;;;27.50;63.90;;;;;;5086860;28;20066;-82
2022/08/04 06:10:18;;;;;;;3.45;1.08;;;27.70;63.70;;;;;;5087633;28;20119;-82
2022/08/04 06:12:54;;;;;;;0.40;0.20;;;27.50;61.80;;;;;;5088924;28;20043;-83
2022/08/04 06:15:23;;;;;;;13.15;3.13;;;27.20;62.40;;;;;;5069627;28;20081;-82
2022/08/04 06:17:54;;;;;;;0.00;0.00;;;27.10;62.00;;;;;;5104171;28;20044;-83
2022/08/04 06:20:25;;;;;;;0.00;0.00;;;27.10;63.60;;;;;;5081740;28;20101;-82
2022/08/04 06:22:58;;;;;;;0.17;0.17;;;27.40;63.40;;;;;;5099132;28;20509;-82
2022/08/04 06:25:31;;;;;;;1.73;1.05;;;27.70;62.80;;;;;;5070163;28;20383;-84
2022/08/04 06:27:58;;;;;;;0.82;0.80;;;27.80;62.50;;;;;;5065294;28;20016;-79
2022/08/04 06:30:27;;;;;;;0.00;0.00;;;27.70;60.30;;;;;;5068190;28;20024;-83
2022/08/04 06:32:59;;;;;;;2.03;1.88;;;27.70;59.80;;;;;;5065516;28;20055;-82
2022/08/04 06:35:27;;;;;;;1.17;0.05;;;27.80;62.10;;;;;;5083200;28;20059;-84
2022/08/04 06:37:55;;;;;;;0.00;0.00;;;27.70;63.70;;;;;;5065652;28;20035;-82
2022/08/04 06:40:23;;;;;;;0.00;0.00;;;27.80;64.00;;;;;;5075554;28;20055;-86
2022/08/04 06:42:51;;;;;;;0.35;0.30;;;28.00;61.20;;;;;;5060343;28;20024;-86
2022/08/04 06:45:19;;;;;;;2.63;0.77;;;28.10;59.60;;;;;;5080032;28;20013;-86
2022/08/04 06:47:46;;;;;;;0.00;0.00;;;27.80;58.60;;;;;;5084436;28;20040;-87
2022/08/04 06:50:13;;;;;;;0.00;0.00;;;27.70;58.50;;;;;;5065858;28;20032;-85
2022/08/04 06:52:39;;;;;;;0.30;0.25;;;27.60;59.80;;;;;;5075227;28;20099;-86
2022/08/04 06:55:07;;;;;;;5.18;1.25;;;28.00;58.90;;;;;;5066505;28;20088;-86
2022/08/04 06:57:34;;;;;;;3.30;0.45;;;28.20;59.00;;;;;;5068513;28;20024;-83
2022/08/04 07:00:04;;;;;;;0.80;0.52;;;28.30;58.60;;;;;;5084498;28;20032;-81
2022/08/04 07:02:40;;;;;;;0.17;0.10;;;28.40;55.80;;;;;;5062020;28;20384;-82
2022/08/04 07:05:07;;;;;;;0.47;0.47;;;28.40;55.50;;;;;;5073666;28;20032;-83
2022/08/04 07:07:35;;;;;;;0.00;0.00;;;28.40;55.10;;;;;;5082825;28;20055;-84
2022/08/04 07:10:02;;;;;;;0.20;0.20;;;28.60;54.90;;;;;;5064653;28;20035;-84
2022/08/04 07:12:28;;;;;;;0.00;0.00;;;28.70;55.50;;;;;;5071756;28;20024;-84
2022/08/04 07:14:54;;;;;;;0.55;0.55;;;28.40;55.10;;;;;;5089880;28;20048;-85
2022/08/04 07:17:22;;;;;;;0.00;0.00;;;28.50;55.60;;;;;;5073518;28;20043;-84
2022/08/04 07:19:54;;;;;;;0.00;0.00;;;28.50;55.80;;;;;;5061729;28;20496;-84
2022/08/04 07:22:20;;;;;;;0.15;0.10;;;28.70;55.70;;;;;;5063389;28;20023;-81
2022/08/04 07:24:46;;;;;;;0.90;0.88;;;28.80;54.30;;;;;;5059834;28;20060;-80
2022/08/04 07:27:16;;;;;;;0.30;0.28;;;28.80;53.60;;;;;;5080056;28;20040;-80
2022/08/04 07:29:42;;;;;;;0.40;0.40;;;29.10;53.90;;;;;;5067364;28;20038;-80
2022/08/04 07:32:09;;;;;;;0.00;0.00;;;29.20;54.20;;;;;;5067220;28;20116;-80
2022/08/04 07:34:37;;;;;;;0.00;0.00;;;29.30;53.80;;;;;;5086112;28;20047;-80
2022/08/04 07:37:03;;;;;;;0.00;0.00;;;29.40;52.90;;;;;;5070521;28;20047;-84
2022/08/04 07:39:31;;;;;;;1.70;1.25;;;29.30;51.90;;;;;;5080550;28;20028;-83
2022/08/04 07:42:00;;;;;;;0.00;0.00;;;29.10;52.80;;;;;;5079419;28;20024;-86
2022/08/04 07:44:26;;;;;;;0.00;0.00;;;29.30;52.80;;;;;;5082629;28;20041;-84
2022/08/04 07:46:53;;;;;;;0.00;0.00;;;29.50;52.80;;;;;;5062457;28;20028;-86
2022/08/04 07:49:20;;;;;;;0.00;0.00;;;29.90;52.90;;;;;;5084786;28;20052;-86
2022/08/04 07:51:46;;;;;;;0.00;0.00;;;30.20;51.30;;;;;;5082806;28;20027;-85
2022/08/04 07:54:14;;;;;;;0.00;0.00;;;30.10;50.00;;;;;;5085362;28;20028;-85
2022/08/04 07:56:42;;;;;;;0.00;0.00;;;30.50;49.20;;;;;;5071474;28;20042;-84
2022/08/04 07:59:08;;;;;;;2.83;2.72;;;30.80;49.10;;;;;;5067238;28;20042;-84
2022/08/04 08:01:35;;;;;;;0.20;0.20;;;30.90;49.40;;;;;;5089843;28;20448;-84
2022/08/04 08:04:05;;;;;;;0.00;0.00;;;31.00;47.70;;;;;;5073923;28;20036;-84
2022/08/04 08:06:34;;;;;;;0.00;0.00;;;30.50;49.00;;;;;;5065611;28;20815;-83
2022/08/04 08:09:12;;;;;;;0.08;0.08;;;30.50;49.30;;;;;;5068988;28;20020;-85
2022/08/04 08:11:39;;;;;;;0.00;0.00;;;30.60;49.00;;;;;;5083303;28;20016;-84
2022/08/04 08:14:07;;;;;;;0.00;0.00;;;30.00;50.00;;;;;;5063305;28;20035;-85
2022/08/04 08:16:35;;;;;;;0.00;0.00;;;30.40;51.20;;;;;;5081315;28;20039;-86
2022/08/04 08:19:01;;;;;;;0.32;0.20;;;30.00;49.90;;;;;;5101244;28;20074;-83
2022/08/04 08:21:28;;;;;;;0.00;0.00;;;30.40;49.60;;;;;;5079644;28;20022;-83
2022/08/04 08:23:55;;;;;;;0.73;0.73;;;30.00;50.30;;;;;;5071092;28;20024;-86
2022/08/04 08:26:21;;;;;;;0.00;0.00;;;29.70;51.40;;;;;;5085436;28;20023;-83
2022/08/04 08:28:48;;;;;;;0.00;0.00;;;29.80;51.40;;;;;;5064121;28;20020;-84
2022/08/04 08:31:14;;;;;;;0.00;0.00;;;30.00;52.40;;;;;;5071871;28;20019;-83
2022/08/04 08:33:41;;;;;;;0.00;0.00;;;30.20;51.40;;;;;;5068432;28;20472;-82
2022/08/04 08:36:40;;;;;;;0.00;0.00;;;30.70;50.10;;;;;;5063368;28;20031;-82
2022/08/04 08:39:20;;;;;;;0.00;0.00;;;30.90;49.10;;;;;;5069350;28;20071;-81
2022/08/04 08:42:04;;;;;;;0.00;0.00;;;30.50;49.70;;;;;;5086156;28;20118;-84
2022/08/04 08:45:07;;;;;;;0.00;0.00;;;30.10;50.80;;;;;;5083898;28;20036;-84
2022/08/04 08:47:49;;;;;;;0.00;0.00;;;30.20;50.50;;;;;;5081012;28;20048;-80
2022/08/04 08:50:27;;;;;;;0.00;0.00;;;30.40;49.60;;;;;;5083182;28;20120;-81
2022/08/04 08:53:13;;;;;;;0.10;0.10;;;30.40;49.20;;;;;;5088109;28;20021;-82
2022/08/04 08:55:43;;;;;;;0.00;0.00;;;30.40;48.90;;;;;;5080938;28;20020;-81
2022/08/04 08:58:31;;;;;;;0.00;0.00;;;30.20;49.10;;;;;;5077972;28;20029;-81
2022/08/04 09:01:10;;;;;;;0.00;0.00;;;30.20;49.20;;;;;;5076802;28;20020;-82
2022/08/04 09:03:54;;;;;;;0.00;0.00;;;30.00;49.40;;;;;;5089845;28;20029;-83
2022/08/04 09:06:48;;;;;;;0.30;0.13;;;29.80;50.20;;;;;;5088827;28;20020;-81
2022/08/04 09:09:39;;;;;;;0.00;0.00;;;29.60;49.00;;;;;;5064477;28;20081;-81
2022/08/04 09:12:26;;;;;;;0.00;0.00;;;29.10;49.00;;;;;;5090393;28;20027;-83
2022/08/04 09:15:28;;;;;;;1.90;1.15;;;28.80;48.50;;;;;;5088240;28;20040;-80
2022/08/04 09:18:11;;;;;;;0.00;0.00;;;29.10;45.40;;;;;;5074701;28;20044;-81
2022/08/04 09:20:46;;;;;;;0.25;0.25;;;29.50;43.60;;;;;;5087114;28;20025;-81
2022/08/04 09:23:19;;;;;;;3.75;1.95;;;29.80;42.70;;;;;;5061419;28;20032;-83
2022/08/04 09:26:07;;;;;;;0.25;0.25;;;30.00;42.90;;;;;;5081780;28;20649;-82
2022/08/04 09:28:52;;;;;;;0.28;0.28;;;30.20;43.90;;;;;;5083708;28;20025;-83
2022/08/04 09:31:34;;;;;;;0.00;0.00;;;30.00;48.60;;;;;;5076168;28;20023;-82
2022/08/04 09:34:38;;;;;;;0.00;0.00;;;29.50;50.30;;;;;;5091746;28;20026;-82
2022/08/04 09:37:14;;;;;;;0.00;0.00;;;29.20;51.30;;;;;;5070233;28;20038;-81
2022/08/04 09:40:00;;;;;;;0.17;0.00;;;28.90;50.90;;;;;;5091531;28;20024;-83
2022/08/04 09:43:10;;;;;;;0.00;0.00;;;28.80;50.90;;;;;;5093200;28;20016;-84
2022/08/04 09:46:06;;;;;;;0.47;0.25;;;28.80;52.20;;;;;;5060587;28;20029;-84
2022/08/04 09:49:13;;;;;;;4.07;1.02;;;28.80;51.90;;;;;;5066981;28;20096;-84
2022/08/04 09:51:57;;;;;;;9.80;5.15;;;28.90;50.00;;;;;;5067269;28;20028;-86
2022/08/04 09:55:09;;;;;;;0.00;0.00;;;28.90;49.60;;;;;;5084486;28;20028;-85
2022/08/04 09:58:04;;;;;;;0.05;0.05;;;28.90;50.80;;;;;;4982665;28;20046;-83
2022/08/04 10:00:39;;;;;;;0.00;0.00;;;29.00;50.40;;;;;;5087429;28;20055;-85
2022/08/04 10:03:06;;;;;;;0.00;0.00;;;28.90;49.90;;;;;;5066643;28;20046;-83
2022/08/04 10:06:06;;;;;;;0.00;0.00;;;28.90;51.10;;;;;;5068844;28;20208;-83
2022/08/04 10:08:59;;;;;;;0.00;0.00;;;28.90;48.80;;;;;;5080238;28;20017;-82
2022/08/04 10:11:43;;;;;;;0.00;0.00;;;29.00;48.60;;;;;;5078327;28;20036;-81
2022/08/04 10:14:27;;;;;;;7.78;3.72;;;29.00;48.90;;;;;;5087523;28;20673;-82
2022/08/04 10:17:06;;;;;;;0.00;0.00;;;29.00;48.80;;;;;;5069160;28;20039;-83
2022/08/04 10:19:37;;;;;;;0.00;0.00;;;29.00;49.00;;;;;;5071504;28;20029;-83
2022/08/04 10:22:03;;;;;;;0.20;0.20;;;28.90;47.80;;;;;;5081128;28;20293;-82
2022/08/04 10:25:05;;;;;;;0.65;0.65;;;28.90;48.60;;;;;;5080633;28;20420;-79
2022/08/04 10:27:48;;;;;;;0.00;0.00;;;29.00;48.70;;;;;;5070819;28;20032;-82
2022/08/04 10:30:18;;;;;;;0.05;0.05;;;28.90;47.70;;;;;;5080826;28;20063;-82
2022/08/04 10:33:01;;;;;;;0.00;0.00;;;28.80;47.50;;;;;;5079256;28;20211;-84
2022/08/04 10:35:36;;;;;;;1.58;0.50;;;28.90;48.40;;;;;;5062777;28;20107;-82
2022/08/04 10:38:22;;;;;;;0.00;0.00;;;28.90;48.00;;;;;;5060777;28;20028;-84
2022/08/04 10:40:54;;;;;;;0.00;0.00;;;28.90;49.00;;;;;;5076108;28;20550;-85
2022/08/04 10:43:35;;;;;;;0.00;0.00;;;28.80;48.70;;;;;;5061085;28;20482;-84
2022/08/04 10:46:25;;;;;;;0.00;0.00;;;28.90;48.90;;;;;;5083095;28;20106;-82
2022/08/04 10:49:02;;;;;;;0.47;0.47;;;28.90;48.90;;;;;;5089851;27;20040;-84
2022/08/04 10:51:37;;;;;;;0.00;0.00;;;29.00;47.90;;;;;;5072342;28;20040;-81
2022/08/04 10:54:31;;;;;;;0.00;0.00;;;29.10;47.80;;;;;;5086672;28;20024;-81
2022/08/04 10:57:07;;;;;;;0.05;0.05;;;29.00;47.20;;;;;;5068552;28;20415;-83
2022/08/04 10:59:46;;;;;;;0.20;0.20;;;29.00;47.60;;;;;;5093200;28;20093;-83
2022/08/04 11:02:35;;;;;;;0.00;0.00;;;29.10;47.90;;;;;;5091813;28;20028;-85
2022/08/04 11:05:15;;;;;;;0.00;0.00;;;29.00;48.00;;;;;;5082781;28;20109;-85
2022/08/04 11:07:44;;;;;;;0.05;0.03;;;29.00;48.30;;;;;;5077515;28;20023;-88
2022/08/04 11:10:13;;;;;;;0.03;0.03;;;29.10;47.20;;;;;;5073806;28;20025;-86
2022/08/04 11:12:43;;;;;;;0.00;0.00;;;29.10;46.60;;;;;;5070151;28;20015;-86
2022/08/04 11:15:16;;;;;;;0.00;0.00;;;29.30;47.10;;;;;;5100017;28;20047;-83
2022/08/04 11:17:57;;;;;;;0.00;0.00;;;29.20;46.80;;;;;;5107311;28;20024;-84
2022/08/04 11:20:34;;;;;;;0.00;0.00;;;29.40;46.60;;;;;;5080597;28;20024;-83
2022/08/04 11:23:13;;;;;;;0.00;0.00;;;29.40;46.50;;;;;;5087330;28;20563;-85
2022/08/04 11:26:18;;;;;;;0.00;0.00;;;29.70;46.00;;;;;;5069847;28;20382;-85
2022/08/04 11:29:24;;;;;;;0.00;0.00;;;29.70;45.70;;;;;;5087680;28;20039;-81
2022/08/04 11:31:57;;;;;;;0.00;0.00;;;29.70;46.00;;;;;;5086318;28;20361;-83
2022/08/04 11:34:26;;;;;;;0.00;0.00;;;29.50;44.60;;;;;;5067363;28;21916;-83
2022/08/04 11:37:40;;;;;;;0.00;0.00;;;29.50;45.10;;;;;;5073509;28;20074;-85
2022/08/04 11:40:15;;;;;;;0.00;0.00;;;29.10;46.20;;;;;;4988057;28;20050;-83
2022/08/04 11:43:10;;;;;;;0.00;0.00;;;28.60;46.30;;;;;;5004610;28;20050;-83
2022/08/04 11:46:04;;;;;;;0.00;0.00;;;28.50;46.80;;;;;;4987936;28;20131;-84
2022/08/04 11:48:41;;;;;;;0.00;0.00;;;28.60;46.70;;;;;;5049998;28;20032;-84
2022/08/04 11:51:17;;;;;;;0.00;0.00;;;28.70;45.80;;;;;;5084428;28;20028;-84
2022/08/04 11:53:44;;;;;;;0.17;0.17;;;28.70;46.20;;;;;;5066300;28;20021;-84
2022/08/04 11:56:21;;;;;;;0.00;0.00;;;28.70;46.20;;;;;;5071632;28;20021;-85
2022/08/04 11:59:35;;;;;;;0.00;0.00;;;28.70;45.30;;;;;;5068039;28;20472;-84
2022/08/04 12:02:51;;;;;;;;;;;;;;;;;;;;;
2022/08/04 12:05:21;;;;;;;0.32;0.32;;;28.70;44.60;;;;;;5081995;28;20092;-86
2022/08/04 12:08:16;;;;;;;0.00;0.00;;;28.60;44.80;;;;;;5071578;28;20029;-84
2022/08/04 12:11:36;;;;;;;0.00;0.00;;;28.40;45.50;;;;;;5059847;28;20087;-82
2022/08/04 12:14:29;;;;;;;0.15;0.15;;;28.40;45.00;;;;;;5006514;28;20050;-82
2022/08/04 12:17:04;;;;;;;0.00;0.00;;;28.40;46.10;;;;;;5070764;28;20028;-83
2022/08/04 12:19:52;;;;;;;0.00;0.00;;;28.30;45.60;;;;;;5079830;28;20025;-84
2022/08/04 12:22:27;;;;;;;0.00;0.00;;;28.20;45.70;;;;;;5062680;28;20059;-83
2022/08/04 12:25:05;;;;;;;0.00;0.00;;;28.30;45.60;;;;;;5055081;28;20043;-80
2022/08/04 12:27:40;;;;;;;0.00;0.00;;;28.30;45.10;;;;;;5056938;28;20033;-82
2022/08/04 12:30:07;;;;;;;0.00;0.00;;;28.20;45.20;;;;;;5055325;28;20047;-83
2022/08/04 12:32:52;;;;;;;0.00;0.00;;;28.20;44.60;;;;;;5085256;28;20020;-82
2022/08/04 12:35:26;;;;;;;0.00;0.00;;;28.20;45.90;;;;;;5054322;28;20075;-83
2022/08/04 12:38:06;;;;;;;0.00;0.00;;;28.20;45.20;;;;;;5077824;28;20496;-84
2022/08/04 12:40:45;;;;;;;0.00;0.00;;;28.30;45.30;;;;;;5070980;28;20027;-82
2022/08/04 12:43:37;;;;;;;0.00;0.00;;;28.30;45.60;;;;;;5065652;28;20030;-82
2022/08/04 12:46:09;;;;;;;0.47;0.45;;;28.30;44.90;;;;;;5073894;28;20377;-82
2022/08/04 12:48:38;;;;;;;0.55;0.55;;;28.30;44.80;;;;;;5085016;28;20033;-83
2022/08/04 12:51:07;;;;;;;0.00;0.00;;;28.50;44.20;;;;;;5075258;28;20021;-84
2022/08/04 12:53:40;;;;;;;0.77;0.52;;;28.70;44.50;;;;;;5071983;28;20048;-83
2022/08/04 12:56:10;;;;;;;0.00;0.00;;;28.80;44.70;;;;;;5091255;28;20085;-82
2022/08/04 12:58:44;;;;;;;0.00;0.00;;;28.70;45.70;;;;;;5093820;28;20496;-84
2022/08/04 13:01:18;;;;;;;0.20;0.08;;;28.70;44.80;;;;;;5096085;28;20036;-82
2022/08/04 13:04:18;;;;;;;0.00;0.00;;;28.80;44.80;;;;;;5089625;28;20054;-81
2022/08/04 13:07:05;;;;;;;0.10;0.10;;;28.70;46.50;;;;;;5096466;28;20020;-80
2022/08/04 13:09:33;;;;;;;0.32;0.32;;;28.60;47.70;;;;;;5087306;28;20028;-82
2022/08/04 13:12:10;;;;;;;0.10;0.10;;;28.30;48.10;;;;;;5091826;28;20040;-81
2022/08/04 13:14:42;;;;;;;0.00;0.00;;;28.20;48.20;;;;;;5075746;28;20036;-82
2022/08/04 13:17:08;;;;;;;0.08;0.08;;;28.10;48.50;;;;;;5095778;28;20051;-80
2022/08/04 13:19:35;;;;;;;0.47;0.20;;;28.10;49.20;;;;;;5080605;28;20477;-80
2022/08/04 13:22:02;;;;;;;0.00;0.00;;;28.00;49.80;;;;;;5091579;28;20036;-79
2022/08/04 13:24:30;;;;;;;0.10;0.10;;;28.00;50.10;;;;;;5095243;28;20062;-81
2022/08/04 13:27:09;;;;;;;0.00;0.00;;;28.00;50.30;;;;;;5079189;28;20132;-80
2022/08/04 13:29:44;;;;;;;0.15;0.15;;;28.00;50.30;;;;;;5081231;28;20021;-81
2022/08/04 13:32:19;;;;;;;0.00;0.00;;;27.90;50.60;;;;;;5067015;28;20025;-78
2022/08/04 13:34:49;;;;;;;0.00;0.00;;;27.90;50.90;;;;;;5066585;28;20036;-82
2022/08/04 13:37:17;;;;;;;0.00;0.00;;;27.80;51.60;;;;;;5089086;28;20027;-81
2022/08/04 13:39:49;;;;;;;0.00;0.00;;;27.60;51.80;;;;;;5073678;28;20069;-80
2022/08/04 13:42:16;;;;;;;0.00;0.00;;;27.40;52.30;;;;;;5119830;28;20035;-79
2022/08/04 13:44:52;;;;;;;0.00;0.00;;;27.20;52.40;;;;;;5070245;28;20029;-81
2022/08/04 13:47:33;;;;;;;0.95;0.00;;;27.20;52.50;;;;;;5066093;28;20550;-83